createdAt,value
2017-01-02T19:44:31.327Z,71.28
2017-01-02T19:44:59.213Z,71.48
2017-01-02T19:45:26.967Z,71.34
2017-01-02T19:45:54.742Z,72.22
2017-01-02T19:46:22.550Z,71.93
2017-01-02T19:46:50.355Z,72.38
2017-01-02T19:47:18.148Z,73.15
2017-01-02T19:47:45.942Z,74.96
2017-01-02T19:48:13.765Z,76.12
2017-01-02T19:48:41.577Z,76.12
2017-01-02T19:49:09.427Z,76.21
2017-01-02T19:49:37.418Z,76.35
2017-01-02T19:50:05.222Z,76.06
2017-01-02T19:50:33.028Z,76.25
2017-01-02T19:51:00.861Z,77.03
2017-01-02T19:51:28.764Z,77.03
2017-01-02T19:51:56.539Z,76.29
2017-01-02T19:52:24.330Z,76.68
2017-01-02T19:52:52.126Z,74.93
2017-01-02T19:53:19.895Z,74.84
2017-01-02T19:53:47.703Z,76.48
2017-01-02T19:54:15.481Z,76.29
2017-01-02T19:54:43.389Z,76
2017-01-02T19:55:31.236Z,75.23
2017-01-02T19:56:29.749Z,75.94
2017-01-02T19:56:57.548Z,75.71
2017-01-02T19:57:25.310Z,75.36
2017-01-02T19:57:53.262Z,76.14
2017-01-02T19:58:21.075Z,75.55
2017-01-02T19:58:49.025Z,76.42
2017-01-02T19:59:16.970Z,76.42
2017-01-02T19:59:44.937Z,76.32
2017-01-02T20:00:12.689Z,76.72
2017-01-02T20:00:40.581Z,74.87
2017-01-02T20:01:08.398Z,74.97
2017-01-02T20:01:36.210Z,76.14
2017-01-02T20:02:03.996Z,75.16
2017-01-02T20:02:31.845Z,74.77
2017-01-02T20:02:59.644Z,74.49
2017-01-02T20:03:27.472Z,72.06
2017-01-02T20:03:55.243Z,71.86
2017-01-02T20:04:23.040Z,71.86
2017-01-02T20:04:50.910Z,72.83
2017-01-02T20:05:18.681Z,73.46
2017-01-02T20:05:46.496Z,73.55
2017-01-02T20:06:14.304Z,73.55
2017-01-02T20:06:42.089Z,74.04
2017-01-02T20:07:09.883Z,74.43
2017-01-02T20:07:37.717Z,74.91
2017-01-02T20:08:05.525Z,75.2
2017-01-02T20:08:33.266Z,75.01
2017-01-02T20:09:01.104Z,75.1
2017-01-02T20:09:28.960Z,74.52
2017-01-02T20:09:56.808Z,73.07
2017-01-02T20:10:24.589Z,72.81
2017-01-02T20:10:52.447Z,73.65
2017-01-02T20:11:20.241Z,72.91
2017-01-02T20:11:47.978Z,72.77
2017-01-02T20:12:16.289Z,73.46
2017-01-02T20:12:44.129Z,73.55
2017-01-02T20:13:12.083Z,73.55
2017-01-02T20:13:40.011Z,73.65
2017-01-02T20:14:07.921Z,73.74
2017-01-02T20:14:35.703Z,75.4
2017-01-02T20:15:03.644Z,75.1
2017-01-02T20:15:31.408Z,74.33
2017-01-02T20:15:59.196Z,74.04
2017-01-02T20:16:26.979Z,73.74
2017-01-02T20:16:54.751Z,73.26
2017-01-02T20:17:22.519Z,74.23
2017-01-02T20:17:50.349Z,74.23
2017-01-02T20:18:18.102Z,73.84
2017-01-02T20:18:45.863Z,72.87
2017-01-02T20:19:13.605Z,72.77
2017-01-02T20:19:41.396Z,72.97
2017-01-02T20:20:09.324Z,73.16
2017-01-02T20:20:37.122Z,73.74
2017-01-02T20:21:04.992Z,73.84
2017-01-02T20:21:32.783Z,73.74
2017-01-02T20:22:00.539Z,75.07
2017-01-02T20:22:28.381Z,75.26
2017-01-02T20:22:56.142Z,76.14
2017-01-02T20:23:23.868Z,75.3
2017-01-02T20:23:51.616Z,74.33
2017-01-02T20:24:19.408Z,74.13
2017-01-02T20:24:47.183Z,74.04
2017-01-02T20:25:29.057Z,73.55
2017-01-02T20:25:56.818Z,73.84
2017-01-02T20:26:24.598Z,73.55
2017-01-02T20:26:52.472Z,72.97
2017-01-02T20:27:20.312Z,73.55
2017-01-02T20:27:48.134Z,73.65
2017-01-02T20:28:15.932Z,72.87
2017-01-02T20:28:43.725Z,73.16
2017-01-02T20:29:11.540Z,72.77
2017-01-02T20:29:39.355Z,73.1
2017-01-02T20:30:07.174Z,72.49
2017-01-02T20:30:35.061Z,72.29
2017-01-02T20:31:02.849Z,73.78
2017-01-02T20:31:30.630Z,73.36
2017-01-02T20:31:58.415Z,72.67
2017-01-02T20:32:26.244Z,73.49
2017-01-02T20:32:54.031Z,74.37
2017-01-02T20:33:21.838Z,74.85
2017-01-02T20:33:49.670Z,74.52
2017-01-02T20:34:17.431Z,74.43
2017-01-02T20:34:45.249Z,73.84
2017-01-02T20:35:13.132Z,73.16
2017-01-02T20:35:40.955Z,72.39
2017-01-02T20:36:08.747Z,72.77
2017-01-02T20:36:36.563Z,72.67
2017-01-02T20:37:04.355Z,72.58
2017-01-02T20:37:32.183Z,72.09
2017-01-02T20:38:00.032Z,72.19
2017-01-02T20:38:27.838Z,72.19
2017-01-02T20:38:55.622Z,73.07
2017-01-02T20:39:23.595Z,73.16
2017-01-02T20:39:51.380Z,73.65
2017-01-02T20:40:19.233Z,74.43
2017-01-02T20:40:47.003Z,73.74
2017-01-02T20:41:14.893Z,73.74
2017-01-02T20:41:42.658Z,74.52
2017-01-02T20:42:10.468Z,74.33
2017-01-02T20:42:38.273Z,74.43
2017-01-02T20:43:06.135Z,73.74
2017-01-02T20:43:33.991Z,72.97
2017-01-02T20:44:01.857Z,72.87
2017-01-02T20:44:29.601Z,72.39
2017-01-02T20:44:57.395Z,72.58
2017-01-02T20:45:25.269Z,72.97
2017-01-02T20:45:53.048Z,72.77
2017-01-02T20:46:20.908Z,72.58
2017-01-02T20:46:48.725Z,72.19
2017-01-02T20:47:16.533Z,72.19
2017-01-02T20:47:44.287Z,72.19
2017-01-02T20:48:12.069Z,72
2017-01-02T20:48:39.874Z,72.39
2017-01-02T20:49:07.693Z,72.09
2017-01-02T20:49:35.479Z,72.19
2017-01-02T20:50:03.231Z,72
2017-01-02T20:50:31.123Z,72
2017-01-02T20:50:58.937Z,71.67
2017-01-02T20:51:26.732Z,71.9
2017-01-02T20:51:54.600Z,72.58
2017-01-02T20:52:22.429Z,72.67
2017-01-02T20:52:50.261Z,73.55
2017-01-02T20:53:18.052Z,72.58
2017-01-02T20:53:45.882Z,72.45
2017-01-02T20:54:13.689Z,72.58
2017-01-02T20:54:41.513Z,71.67
2017-01-02T20:55:09.248Z,71.03
2017-01-02T20:55:37.097Z,70.73
2017-01-02T20:56:04.824Z,70.54
2017-01-02T20:56:32.611Z,71.12
2017-01-02T20:57:00.413Z,70.73
2017-01-02T20:57:28.240Z,71.58
2017-01-02T20:57:56.019Z,70.73
2017-01-02T20:58:23.814Z,70.64
2017-01-02T20:58:51.627Z,69.64
2017-01-02T20:59:19.393Z,70.51
2017-01-02T20:59:47.165Z,71.09
2017-01-02T21:00:14.943Z,71.86
2017-01-02T21:00:42.840Z,71.48
2017-01-02T21:01:10.692Z,70.51
2017-01-02T21:01:38.488Z,71.25
2017-01-02T21:02:06.327Z,71.09
2017-01-02T21:02:34.244Z,70.7
2017-01-02T21:03:02.216Z,71.28
2017-01-02T21:03:30.124Z,71.19
2017-01-02T21:03:57.916Z,70.8
2017-01-02T21:04:25.686Z,71.28
2017-01-02T21:04:53.472Z,71.09
2017-01-02T21:05:21.369Z,70.21
2017-01-02T21:05:49.199Z,69.93
2017-01-02T21:06:17.018Z,70.9
2017-01-02T21:06:44.824Z,71.96
2017-01-02T21:07:12.611Z,72.16
2017-01-02T21:07:40.411Z,71.09
2017-01-02T21:08:08.196Z,71.67
2017-01-02T21:08:36.112Z,71.09
2017-01-02T21:09:03.923Z,72.55
2017-01-02T21:09:31.738Z,71.58
2017-01-02T21:09:59.554Z,70.41
2017-01-02T21:10:27.368Z,70.7
2017-01-02T21:10:55.255Z,70.8
2017-01-02T21:11:22.999Z,70.41
2017-01-02T21:11:50.757Z,70.51
2017-01-02T21:12:18.664Z,69.93
2017-01-02T21:12:46.577Z,70.09
2017-01-02T21:13:14.335Z,70.37
2017-01-02T21:13:42.236Z,70.37
2017-01-02T21:14:09.999Z,70.67
2017-01-02T21:14:37.799Z,70.86
2017-01-02T21:15:05.557Z,72.38
2017-01-02T21:15:33.450Z,71.41
2017-01-02T21:16:01.431Z,72.18
2017-01-02T21:16:29.249Z,72.57
2017-01-02T21:16:56.994Z,71.99
2017-01-02T21:17:24.976Z,71.7
2017-01-02T21:17:52.778Z,71.99
2017-01-02T21:18:20.581Z,73.54
2017-01-02T21:18:48.385Z,74.22
2017-01-02T21:19:16.156Z,74.41
2017-01-02T21:19:43.933Z,74.22
2017-01-02T21:20:11.701Z,73.25
2017-01-02T21:20:39.455Z,73.35
2017-01-02T21:21:07.298Z,72.77
2017-01-02T21:21:35.070Z,73.54
2017-01-02T21:22:02.857Z,73.38
2017-01-02T21:22:30.650Z,72.8
2017-01-02T21:22:58.488Z,72.8
2017-01-02T21:23:26.381Z,73.38
2017-01-02T21:23:54.203Z,72.8
2017-01-02T21:24:21.988Z,72.51
2017-01-02T21:24:49.749Z,71.77
2017-01-02T21:25:17.525Z,71.73
2017-01-02T21:25:45.351Z,72.41
2017-01-02T21:26:13.285Z,72.41
2017-01-02T21:26:41.014Z,72.31
2017-01-02T21:27:08.783Z,72.45
2017-01-02T21:27:36.531Z,72.64
2017-01-02T21:28:04.301Z,73.61
2017-01-02T21:28:32.066Z,73.71
2017-01-02T21:28:59.911Z,74.58
2017-01-02T21:29:27.769Z,74.19
2017-01-02T21:29:55.615Z,74.77
2017-01-02T21:30:23.466Z,74.97
2017-01-02T21:30:51.308Z,74.39
2017-01-02T21:31:19.064Z,74.49
2017-01-02T21:31:46.787Z,74.26
2017-01-02T21:32:14.602Z,75.26
2017-01-02T21:32:42.415Z,74.29
2017-01-02T21:33:10.294Z,74.74
2017-01-02T21:33:38.062Z,75.32
2017-01-02T21:34:05.893Z,75.81
2017-01-02T21:34:33.677Z,75.36
2017-01-02T21:35:01.556Z,74.29
2017-01-02T21:35:29.314Z,74.06
2017-01-02T21:35:57.202Z,74.35
2017-01-02T21:36:24.961Z,75.03
2017-01-02T21:36:52.901Z,74.26
2017-01-02T21:37:20.742Z,74.26
2017-01-02T21:37:48.575Z,75.03
2017-01-02T21:38:16.382Z,75.23
2017-01-02T21:38:44.109Z,75.9
2017-01-02T21:39:11.897Z,75.51
2017-01-02T21:39:39.677Z,75.23
2017-01-02T21:40:07.554Z,75.32
2017-01-02T21:40:35.461Z,75.9
2017-01-02T21:41:03.354Z,76.39
2017-01-02T21:41:31.168Z,76.78
2017-01-02T21:41:58.964Z,76.87
2017-01-02T21:42:26.729Z,77.06
2017-01-02T21:42:54.459Z,76.48
2017-01-02T21:43:22.336Z,76.78
2017-01-02T21:43:50.133Z,76.19
2017-01-02T21:44:17.914Z,75.71
2017-01-02T21:44:45.695Z,74.84
2017-01-02T21:45:13.515Z,73.77
2017-01-02T21:45:41.323Z,73.15
2017-01-02T21:46:09.192Z,73.93
2017-01-02T21:46:36.971Z,73.86
2017-01-02T21:47:04.687Z,73.64
2017-01-02T21:47:32.465Z,74.32
2017-01-02T21:48:00.258Z,74.9
2017-01-02T21:48:28.047Z,74.32
2017-01-02T21:48:55.842Z,75.09
2017-01-02T21:49:23.591Z,74.7
2017-01-02T21:49:51.376Z,74.99
2017-01-02T21:50:19.132Z,75.09
2017-01-02T21:50:46.970Z,74.9
2017-01-02T21:51:14.866Z,75.09
2017-01-02T21:51:42.621Z,74.99
2017-01-02T21:52:10.419Z,74.99
2017-01-02T21:52:38.254Z,74.9
2017-01-02T21:53:06.089Z,74.99
2017-01-02T21:53:33.907Z,75.38
2017-01-02T21:54:01.699Z,76.1
2017-01-02T21:54:29.512Z,74.84
2017-01-02T21:54:57.266Z,75.19
2017-01-02T21:55:25.138Z,75.19
2017-01-02T21:55:53.010Z,74.74
2017-01-02T21:56:20.954Z,74.06
2017-01-02T21:56:48.791Z,74.32
2017-01-02T21:57:16.759Z,76.68
2017-01-02T21:57:44.561Z,77.22
2017-01-02T21:58:12.370Z,75.67
2017-01-02T21:58:40.139Z,76.15
2017-01-02T21:59:07.923Z,77.03
2017-01-02T21:59:35.662Z,75.96
2017-01-02T22:00:03.480Z,76.58
2017-01-02T22:00:31.386Z,76.74
2017-01-02T22:00:59.201Z,76.25
2017-01-02T22:01:27.069Z,76.39
2017-01-02T22:01:54.932Z,76.15
2017-01-02T22:02:22.660Z,76.78
2017-01-02T22:02:50.482Z,76.64
2017-01-02T22:03:18.217Z,76.1
2017-01-02T22:03:46.039Z,76.35
2017-01-02T22:04:13.809Z,76.45
2017-01-02T22:04:41.689Z,76.15
2017-01-02T22:05:09.463Z,75.19
2017-01-02T22:05:37.277Z,75.51
2017-01-02T22:06:05.183Z,75.13
2017-01-02T22:06:33.070Z,75.32
2017-01-02T22:07:01.069Z,74.84
2017-01-02T22:07:28.930Z,75.03
2017-01-02T22:07:56.686Z,75.13
2017-01-02T22:08:24.445Z,74.84
2017-01-02T22:08:52.220Z,74.84
2017-01-02T22:09:20.008Z,75.61
2017-01-02T22:09:47.906Z,76
2017-01-02T22:10:15.722Z,76.39
2017-01-02T22:10:43.506Z,76.68
2017-01-02T22:11:11.394Z,76.78
2017-01-02T22:11:39.259Z,75.42
2017-01-02T22:12:07.040Z,75.61
2017-01-02T22:12:34.979Z,76
2017-01-02T22:13:02.795Z,76.48
2017-01-02T22:13:30.575Z,76.68
2017-01-02T22:13:58.365Z,76.19
2017-01-02T22:14:26.164Z,76.29
2017-01-02T22:14:54.079Z,75.9
2017-01-02T22:15:21.861Z,75.51
2017-01-02T22:15:49.637Z,75.32
2017-01-02T22:16:17.641Z,74.45
2017-01-02T22:16:45.488Z,74.54
2017-01-02T22:17:13.278Z,75.03
2017-01-02T22:17:41.051Z,75.03
2017-01-02T22:18:08.839Z,75.32
2017-01-02T22:18:36.583Z,75.51
2017-01-02T22:19:04.420Z,75.19
2017-01-02T22:19:32.231Z,75.23
2017-01-02T22:20:00.016Z,74.93
2017-01-02T22:20:27.881Z,75.23
2017-01-02T22:20:55.654Z,75.23
2017-01-02T22:21:23.549Z,75.23
2017-01-02T22:21:51.382Z,75.03
2017-01-02T22:22:19.164Z,75.23
2017-01-02T22:22:46.944Z,75.03
2017-01-02T22:23:14.730Z,74.84
2017-01-02T22:23:42.587Z,75.42
2017-01-02T22:24:10.369Z,76.1
2017-01-02T22:24:38.115Z,75.42
2017-01-02T22:25:05.854Z,75.13
2017-01-02T22:25:33.620Z,74.93
2017-01-02T22:26:01.402Z,74.35
2017-01-02T22:26:29.252Z,74.19
2017-01-02T22:26:57.008Z,74.49
2017-01-02T22:27:24.836Z,74.06
2017-01-02T22:27:52.632Z,73.61
2017-01-02T22:28:20.416Z,73.9
2017-01-02T22:28:48.214Z,74.35
2017-01-02T22:29:15.993Z,74.26
2017-01-02T22:29:43.877Z,74.74
2017-01-02T22:30:11.650Z,75.13
2017-01-02T22:30:39.514Z,75.51
2017-01-02T22:31:07.339Z,74.93
2017-01-02T22:31:35.320Z,75.03
2017-01-02T22:32:03.097Z,75.71
2017-01-02T22:32:30.913Z,75.42
2017-01-02T22:32:58.680Z,75.42
2017-01-02T22:33:26.511Z,76.1
2017-01-02T22:33:54.301Z,76.19
2017-01-02T22:34:22.139Z,76.1
2017-01-02T22:34:49.950Z,76.1
2017-01-02T22:35:17.722Z,76.48
2017-01-02T22:35:45.547Z,76.48
2017-01-02T22:36:13.351Z,76.48
2017-01-02T22:36:41.183Z,76.83
2017-01-02T22:37:08.955Z,76.45
2017-01-02T22:37:36.746Z,76.06
2017-01-02T22:38:04.550Z,76.45
2017-01-02T22:38:32.385Z,76.54
2017-01-02T22:39:00.166Z,76.83
2017-01-02T22:39:27.948Z,76.15
2017-01-02T22:39:55.797Z,76.83
2017-01-02T22:40:23.602Z,76.74
2017-01-02T22:40:51.378Z,76.93
2017-01-02T22:41:19.312Z,77.32
2017-01-02T22:41:47.193Z,76.45
2017-01-02T22:42:14.994Z,76.74
2017-01-02T22:42:42.838Z,77.12
2017-01-02T22:43:10.618Z,77.32
2017-01-02T22:43:38.422Z,77.7
2017-01-02T22:44:06.214Z,78.09
2017-01-02T22:44:34.008Z,77.9
2017-01-02T22:45:01.838Z,77.22
2017-01-02T22:45:29.625Z,76.74
2017-01-02T22:45:57.385Z,77.32
2017-01-02T22:46:25.211Z,77.22
2017-01-02T22:46:53.097Z,78.19
2017-01-02T22:47:20.876Z,76.93
2017-01-02T22:47:48.637Z,77.51
2017-01-02T22:48:16.439Z,77.12
2017-01-02T22:48:44.269Z,76.83
2017-01-02T22:49:12.037Z,77.7
2017-01-02T22:49:39.817Z,77.61
2017-01-02T22:50:07.678Z,77.8
2017-01-02T22:50:35.544Z,78.09
2017-01-02T22:51:03.351Z,77.51
2017-01-02T22:51:31.202Z,77.61
2017-01-02T22:51:59.146Z,77.32
2017-01-02T22:52:26.935Z,76.45
2017-01-02T22:52:54.694Z,77.03
2017-01-02T22:53:22.535Z,77.22
2017-01-02T22:53:50.322Z,77.32
2017-01-02T22:54:18.086Z,76.64
2017-01-02T22:54:45.849Z,76.64
2017-01-02T22:55:13.635Z,77.32
2017-01-02T22:55:41.409Z,77.12
2017-01-02T22:56:09.237Z,77.61
2017-01-02T22:56:37.065Z,77.12
2017-01-02T22:57:04.929Z,77.32
2017-01-02T22:57:32.664Z,77.03
2017-01-02T22:58:00.423Z,77.8
2017-01-02T22:58:28.293Z,76.97
2017-01-02T22:58:56.087Z,76.68
2017-01-02T22:59:23.857Z,76.58
2017-01-02T22:59:51.618Z,76.25
2017-01-02T23:00:19.453Z,76.45
2017-01-02T23:00:47.229Z,77.12
2017-01-02T23:01:15.061Z,77.9
2017-01-02T23:01:42.891Z,77.9
2017-01-02T23:02:10.728Z,78.09
2017-01-02T23:02:38.519Z,79.25
2017-01-02T23:03:06.312Z,79.06
2017-01-02T23:03:34.068Z,78.97
2017-01-02T23:04:01.850Z,78.38
2017-01-02T23:04:29.677Z,78.29
2017-01-02T23:04:57.557Z,77.9
2017-01-02T23:05:25.296Z,78.09
2017-01-02T23:05:53.044Z,77.9
2017-01-02T23:06:20.864Z,78.09
2017-01-02T23:06:48.799Z,79.25
2017-01-02T23:07:16.733Z,78.03
2017-01-02T23:07:44.570Z,79.06
2017-01-02T23:08:12.371Z,80.13
2017-01-02T23:08:40.141Z,79.55
2017-01-02T23:09:07.901Z,79.64
2017-01-02T23:09:35.694Z,79.35
2017-01-02T23:10:03.533Z,78.87
2017-01-02T23:10:31.344Z,79.45
2017-01-02T23:10:59.175Z,79.84
2017-01-02T23:11:26.979Z,79.25
2017-01-02T23:11:54.782Z,79.74
2017-01-02T23:12:22.677Z,79.64
2017-01-02T23:12:50.463Z,80.62
2017-01-02T23:13:18.185Z,80.13
2017-01-02T23:13:45.993Z,79.84
2017-01-02T23:14:13.796Z,80.03
2017-01-02T23:14:41.666Z,79.64
2017-01-02T23:15:09.496Z,79.64
2017-01-02T23:15:37.282Z,79.35
2017-01-02T23:16:05.070Z,79.25
2017-01-02T23:16:32.811Z,79.16
2017-01-02T23:17:00.598Z,79.25
2017-01-02T23:17:28.555Z,79.45
2017-01-02T23:17:56.370Z,79.74
2017-01-02T23:18:24.124Z,79.74
2017-01-02T23:18:51.890Z,79.84
2017-01-02T23:19:19.652Z,79.16
2017-01-02T23:19:47.427Z,78.97
2017-01-02T23:20:15.246Z,79.35
2017-01-02T23:20:43.037Z,79.55
2017-01-02T23:21:10.843Z,79.64
2017-01-02T23:21:38.595Z,79.64
2017-01-02T23:22:06.371Z,79.06
2017-01-02T23:22:34.265Z,79.06
2017-01-02T23:23:02.119Z,80.71
2017-01-02T23:23:29.906Z,80.62
2017-01-02T23:23:57.694Z,80.71
2017-01-02T23:24:25.482Z,80.9
2017-01-02T23:24:53.276Z,81.29
2017-01-02T23:25:21.008Z,81
2017-01-02T23:25:48.889Z,80.8
2017-01-02T23:26:16.686Z,80.52
2017-01-02T23:26:44.447Z,80.22
2017-01-02T23:27:12.194Z,80.03
2017-01-02T23:27:40.043Z,80.62
2017-01-02T23:28:07.842Z,79.84
2017-01-02T23:28:35.633Z,80.03
2017-01-02T23:29:03.405Z,80.62
2017-01-02T23:29:31.191Z,80.57
2017-01-02T23:29:58.996Z,80.96
2017-01-02T23:30:26.823Z,81.05
2017-01-02T23:30:54.599Z,81.05
2017-01-02T23:31:22.441Z,80.96
2017-01-02T23:31:50.190Z,81.15
2017-01-02T23:32:17.963Z,80.47
2017-01-02T23:32:45.865Z,80.38
2017-01-02T23:33:13.723Z,80.71
2017-01-02T23:33:41.533Z,80.8
2017-01-02T23:34:09.288Z,81.2
2017-01-02T23:34:37.089Z,80.52
2017-01-02T23:35:04.894Z,80.32
2017-01-02T23:35:32.688Z,80.32
2017-01-02T23:36:00.453Z,80.62
2017-01-02T23:36:28.239Z,80.42
2017-01-02T23:36:56.007Z,80.62
2017-01-02T23:37:23.804Z,80.52
2017-01-02T23:37:51.705Z,80.13
2017-01-02T23:38:19.489Z,81.1
2017-01-02T23:38:47.272Z,80.52
2017-01-02T23:39:15.061Z,80.8
2017-01-02T23:39:42.809Z,80.52
2017-01-02T23:40:10.618Z,79.74
2017-01-02T23:40:38.416Z,79.16
2017-01-02T23:41:06.197Z,80.03
2017-01-02T23:41:33.952Z,81.39
2017-01-02T23:42:01.737Z,81
2017-01-02T23:42:29.518Z,80.87
2017-01-02T23:42:57.433Z,81.05
2017-01-02T23:43:25.238Z,81.05
2017-01-02T23:43:53.001Z,81.35
2017-01-02T23:44:20.913Z,81.73
2017-01-02T23:44:48.703Z,81.64
2017-01-02T23:45:16.503Z,81.83
2017-01-02T23:45:44.316Z,81.05
2017-01-02T23:46:12.148Z,81.97
2017-01-02T23:46:39.920Z,81.97
2017-01-02T23:47:07.699Z,81.1
2017-01-02T23:47:35.481Z,81.1
2017-01-02T23:48:03.365Z,81.39
2017-01-02T23:48:31.126Z,81
2017-01-02T23:48:58.934Z,81.29
2017-01-02T23:49:26.727Z,80.96
2017-01-02T23:49:54.512Z,81.54
2017-01-02T23:50:22.289Z,81.05
2017-01-02T23:50:50.101Z,81.58
2017-01-02T23:51:17.916Z,81.35
2017-01-02T23:51:45.696Z,81.58
2017-01-02T23:52:13.501Z,81.35
2017-01-02T23:52:41.368Z,81
2017-01-02T23:53:09.138Z,79.02
2017-01-02T23:53:36.908Z,79.6
2017-01-02T23:54:04.698Z,79.99
2017-01-02T23:54:32.490Z,79.8
2017-01-02T23:55:00.307Z,79.6
2017-01-02T23:55:28.251Z,79.9
2017-01-02T23:55:56.028Z,80.67
2017-01-02T23:56:23.812Z,80.38
2017-01-02T23:56:51.578Z,79.9
2017-01-02T23:57:19.363Z,79.9
2017-01-02T23:57:47.231Z,80.77
2017-01-02T23:58:15.021Z,79.6
2017-01-02T23:58:42.805Z,79.41
2017-01-02T23:59:10.580Z,81.54
2017-01-02T23:59:38.312Z,81.64
